宮崎空港の過去48時間の天気

宮崎空港 (Miyazaki)

現在時刻: 10/19 23:36 JST (10/19 14:36 UTC) 以下の時間は現地時間です。

過去48時間のMETAR気象情報
時間 風向 風速(m/s) 視程 気温(℃) 湿度(%) 気圧(hPa) 天気現象
19 21:00 西 6 10km以上 18 60 1014
19 20:00 西 6 10km以上 18 68 1014
19 19:00 西 5 10km以上 19 60 1013
19 18:00 西 5 10km以上 19 56 1013
19 17:00 西 8 10km以上 21 53 1013
19 16:00 西北西 6 10km以上 22 50 1013
19 15:00 西北西 7 10km以上 23 47 1012
19 14:00 西 5 10km以上 25 39 1012
19 13:00 不定 2 10km以上 25 36 1013
19 12:00 北西 3 10km以上 25 36 1015
19 11:00 西北西 3 10km以上 24 44 1016
19 10:00 北北西 3 10km以上 21 56 1016
19 09:00 北西 3 10km以上 19 64 1017
19 08:00 西北西 3 10km以上 17 72 1017
19 07:00 北西 2 10km以上 16 77 1017
19 06:10 西 3 10km以上 15 82 1017
18 21:00 西 4 10km以上 17 77 1020
18 20:00 西北西 3 10km以上 18 68 1020
18 19:00 北西 2 10km以上 20 56 1019
18 18:00 北東 3 10km以上 20 56 1019
18 17:00 北東 3 10km以上 20 56 1018
18 16:00 北東 4 10km以上 21 53 1019
18 15:00 北東 3 10km以上 21 49 1018
18 14:00 北北東 5 10km以上 21 49 1018
18 13:00 北東 4 10km以上 21 46 1019
18 12:00 東北東 5 10km以上 21 53 1020
18 11:00 北北東 6 10km以上 20 53 1021
18 10:00 北北東 6 10km以上 19 49 1021
18 09:00 5 10km以上 19 49 1021
18 08:00 西 4 10km以上 15 72 1020
18 07:00 西北西 3 10km以上 13 82 1020
18 06:10 西 3 10km以上 13 82 1020
RJFM 191200Z 26012KT 9999 FEW030 BKN/// 18/10 Q1014
RJFM 191100Z 26011KT 9999 FEW030 SCT180 BKN/// 18/12 Q1014
RJFM 191000Z 27010KT 9999 FEW035 SCT100 BKN/// 19/11 Q1013
RJFM 190900Z 27009KT 9999 FEW035 SCT070 BKN/// 19/10 Q1013
RJFM 190800Z 27015KT 9999 FEW035 BKN060 BKN090 21/11 Q1013
RJFM 190700Z 29012KT 9999 FEW035 BKN070 BKN100 22/11 Q1013
RJFM 190600Z 29013KT 9999 FEW035 BKN070 BKN100 23/11 Q1012
RJFM 190500Z 27009KT 9999 FEW030 SCT060 BKN100 25/10 Q1012
RJFM 190400Z VRB04KT 9999 FEW030 SCT090 25/09 Q1013
RJFM 190300Z 31005KT 250V030 9999 FEW030 25/09 Q1015
RJFM 190200Z 29005KT 210V360 9999 FEW030 24/11 Q1016
RJFM 190100Z 34005KT 280V010 9999 FEW030 21/12 Q1016
RJFM 190000Z 31005KT 270V340 9999 FEW030 SCT110 19/12 Q1017
RJFM 182300Z 30005KT 9999 FEW030 BKN110 17/12 Q1017
RJFM 182200Z 31003KT 9999 FEW030 BKN100 16/12 Q1017
RJFM 182110Z 28006KT 9999 FEW020 SCT100 BKN150 15/12 Q1017 RMK 1CU020 3AC100 5AC150 A3004
RJFM 181200Z 27008KT 9999 FEW030 BKN150 17/13 Q1020
RJFM 181100Z 30006KT 9999 FEW030 BKN150 18/12 Q1020
RJFM 181000Z 32004KT 9999 FEW030 BKN170 BKN/// 20/11 Q1019
RJFM 180900Z 04005KT 350V090 9999 FEW030 BKN180 BKN/// 20/11 Q1019
RJFM 180800Z 04006KT 010V080 9999 FEW040 SCT180 BKN/// 20/11 Q1018
RJFM 180700Z 04008KT 010V070 9999 FEW040 SCT190 BKN/// 21/11 Q1019
RJFM 180600Z 05006KT 010V080 9999 FEW040 BKN/// 21/10 Q1018
RJFM 180500Z 03010KT 9999 FEW040 BKN/// 21/10 Q1018
RJFM 180400Z 04008KT 9999 FEW040 BKN/// 21/09 Q1019
RJFM 180300Z 06010KT 9999 FEW035 BKN/// 21/11 Q1020
RJFM 180200Z 02012KT 9999 FEW025 BKN/// 20/10 Q1021
RJFM 180100Z 02012KT 9999 FEW025 BKN/// 19/08 Q1021
RJFM 180000Z 01010KT 330V030 9999 FEW020 BKN/// 19/08 Q1021
RJFM 172300Z 28007KT 9999 FEW020 BKN/// 15/10 Q1020
RJFM 172200Z 29006KT 9999 FEW020 BKN/// 13/10 Q1020
RJFM 172110Z 28006KT 9999 FEW020 SCT050 BKN/// 13/10 Q1020 RMK 1CU020 3SC050 A3013